sensor_id;sensor_type;location;lat;lon;timestamp;P1;durP1;ratioP1;P2;durP2;ratioP2
45944;SDS011;31655;48.972;10.686;2023-07-30T00:01:37;12.30;;;8.73;;
45944;SDS011;31655;48.972;10.686;2023-07-30T00:04:03;11.60;;;8.32;;
45944;SDS011;31655;48.972;10.686;2023-07-30T00:06:29;12.65;;;9.07;;
45944;SDS011;31655;48.972;10.686;2023-07-30T00:08:55;13.43;;;9.35;;
45944;SDS011;31655;48.972;10.686;2023-07-30T00:11:21;13.35;;;9.32;;
45944;SDS011;31655;48.972;10.686;2023-07-30T00:13:47;13.52;;;8.77;;
45944;SDS011;31655;48.972;10.686;2023-07-30T00:16:13;14.88;;;9.35;;
45944;SDS011;31655;48.972;10.686;2023-07-30T00:18:38;17.95;;;9.77;;
45944;SDS011;31655;48.972;10.686;2023-07-30T00:21:04;12.77;;;9.32;;
45944;SDS011;31655;48.972;10.686;2023-07-30T00:23:30;13.77;;;8.57;;
45944;SDS011;31655;48.972;10.686;2023-07-30T00:25:56;13.38;;;9.43;;
45944;SDS011;31655;48.972;10.686;2023-07-30T00:28:22;12.52;;;8.30;;
45944;SDS011;31655;48.972;10.686;2023-07-30T00:30:48;12.30;;;9.05;;
45944;SDS011;31655;48.972;10.686;2023-07-30T00:33:14;14.93;;;9.90;;
45944;SDS011;31655;48.972;10.686;2023-07-30T00:35:40;13.50;;;9.40;;
45944;SDS011;31655;48.972;10.686;2023-07-30T00:38:06;18.75;;;10.43;;
45944;SDS011;31655;48.972;10.686;2023-07-30T00:40:32;16.15;;;11.77;;
45944;SDS011;31655;48.972;10.686;2023-07-30T00:42:58;17.25;;;10.70;;
45944;SDS011;31655;48.972;10.686;2023-07-30T00:45:24;14.50;;;11.85;;
45944;SDS011;31655;48.972;10.686;2023-07-30T00:47:50;15.15;;;10.23;;
45944;SDS011;31655;48.972;10.686;2023-07-30T00:50:16;15.15;;;11.52;;
45944;SDS011;31655;48.972;10.686;2023-07-30T00:52:42;14.65;;;10.77;;
45944;SDS011;31655;48.972;10.686;2023-07-30T00:55:08;15.07;;;10.15;;
45944;SDS011;31655;48.972;10.686;2023-07-30T00:57:35;12.15;;;8.02;;
45944;SDS011;31655;48.972;10.686;2023-07-30T01:00:02;10.18;;;8.00;;
45944;SDS011;31655;48.972;10.686;2023-07-30T01:02:31;9.77;;;6.25;;
45944;SDS011;31655;48.972;10.686;2023-07-30T01:05:02;12.00;;;7.40;;
45944;SDS011;31655;48.972;10.686;2023-07-30T01:07:29;12.15;;;7.25;;
45944;SDS011;31655;48.972;10.686;2023-07-30T01:09:55;10.15;;;8.43;;
45944;SDS011;31655;48.972;10.686;2023-07-30T01:12:21;10.80;;;6.93;;
45944;SDS011;31655;48.972;10.686;2023-07-30T01:14:48;9.68;;;7.28;;
45944;SDS011;31655;48.972;10.686;2023-07-30T01:17:14;11.60;;;6.78;;
45944;SDS011;31655;48.972;10.686;2023-07-30T01:19:41;9.35;;;6.38;;
45944;SDS011;31655;48.972;10.686;2023-07-30T01:22:07;12.27;;;7.03;;
45944;SDS011;31655;48.972;10.686;2023-07-30T01:24:33;12.40;;;6.25;;
45944;SDS011;31655;48.972;10.686;2023-07-30T01:26:59;10.07;;;5.35;;
45944;SDS011;31655;48.972;10.686;2023-07-30T01:29:33;8.40;;;5.68;;
45944;SDS011;31655;48.972;10.686;2023-07-30T01:32:11;10.20;;;6.35;;
45944;SDS011;31655;48.972;10.686;2023-07-30T01:34:37;7.93;;;5.57;;
45944;SDS011;31655;48.972;10.686;2023-07-30T01:37:05;8.13;;;5.53;;
45944;SDS011;31655;48.972;10.686;2023-07-30T01:39:34;8.48;;;4.88;;
45944;SDS011;31655;48.972;10.686;2023-07-30T01:42:03;7.03;;;4.75;;
45944;SDS011;31655;48.972;10.686;2023-07-30T01:44:29;9.70;;;5.40;;
45944;SDS011;31655;48.972;10.686;2023-07-30T01:46:55;7.78;;;4.60;;
45944;SDS011;31655;48.972;10.686;2023-07-30T01:49:21;7.97;;;4.43;;
45944;SDS011;31655;48.972;10.686;2023-07-30T01:51:47;5.32;;;4.38;;
45944;SDS011;31655;48.972;10.686;2023-07-30T01:54:15;7.43;;;3.97;;
45944;SDS011;31655;48.972;10.686;2023-07-30T01:56:40;8.55;;;4.00;;
45944;SDS011;31655;48.972;10.686;2023-07-30T01:59:06;6.70;;;4.90;;
45944;SDS011;31655;48.972;10.686;2023-07-30T02:01:32;9.02;;;4.97;;
45944;SDS011;31655;48.972;10.686;2023-07-30T02:03:58;7.70;;;5.22;;
45944;SDS011;31655;48.972;10.686;2023-07-30T02:06:24;7.75;;;6.20;;
45944;SDS011;31655;48.972;10.686;2023-07-30T02:08:50;7.85;;;5.75;;
45944;SDS011;31655;48.972;10.686;2023-07-30T02:11:16;8.18;;;5.78;;
45944;SDS011;31655;48.972;10.686;2023-07-30T02:13:42;6.68;;;5.57;;
45944;SDS011;31655;48.972;10.686;2023-07-30T02:16:08;19.70;;;6.50;;
45944;SDS011;31655;48.972;10.686;2023-07-30T02:18:34;8.15;;;5.95;;
45944;SDS011;31655;48.972;10.686;2023-07-30T02:21:00;8.80;;;5.65;;
45944;SDS011;31655;48.972;10.686;2023-07-30T02:23:26;12.00;;;6.72;;
45944;SDS011;31655;48.972;10.686;2023-07-30T02:25:52;9.73;;;5.68;;
45944;SDS011;31655;48.972;10.686;2023-07-30T02:28:18;6.75;;;5.43;;
45944;SDS011;31655;48.972;10.686;2023-07-30T02:30:44;6.13;;;4.47;;
45944;SDS011;31655;48.972;10.686;2023-07-30T02:33:10;6.07;;;3.83;;
45944;SDS011;31655;48.972;10.686;2023-07-30T02:35:36;6.40;;;4.60;;
45944;SDS011;31655;48.972;10.686;2023-07-30T02:38:02;4.72;;;3.63;;
45944;SDS011;31655;48.972;10.686;2023-07-30T02:40:28;4.35;;;3.85;;
45944;SDS011;31655;48.972;10.686;2023-07-30T02:42:54;5.43;;;3.25;;
45944;SDS011;31655;48.972;10.686;2023-07-30T02:45:20;5.68;;;3.50;;
45944;SDS011;31655;48.972;10.686;2023-07-30T02:47:46;5.03;;;2.78;;
45944;SDS011;31655;48.972;10.686;2023-07-30T02:50:12;4.25;;;2.70;;
45944;SDS011;31655;48.972;10.686;2023-07-30T02:52:38;3.67;;;3.35;;
45944;SDS011;31655;48.972;10.686;2023-07-30T02:55:04;4.32;;;3.13;;
45944;SDS011;31655;48.972;10.686;2023-07-30T02:57:30;3.83;;;2.70;;
45944;SDS011;31655;48.972;10.686;2023-07-30T02:59:56;3.83;;;2.40;;
45944;SDS011;31655;48.972;10.686;2023-07-30T03:02:22;3.92;;;3.10;;
45944;SDS011;31655;48.972;10.686;2023-07-30T03:04:48;3.78;;;2.65;;
45944;SDS011;31655;48.972;10.686;2023-07-30T03:07:14;3.30;;;2.60;;
45944;SDS011;31655;48.972;10.686;2023-07-30T03:09:40;3.88;;;2.70;;
45944;SDS011;31655;48.972;10.686;2023-07-30T03:12:06;3.78;;;2.30;;
45944;SDS011;31655;48.972;10.686;2023-07-30T03:14:32;7.63;;;2.92;;
45944;SDS011;31655;48.972;10.686;2023-07-30T03:16:58;4.43;;;2.65;;
45944;SDS011;31655;48.972;10.686;2023-07-30T03:19:24;3.53;;;2.60;;
45944;SDS011;31655;48.972;10.686;2023-07-30T03:21:50;3.20;;;2.03;;
45944;SDS011;31655;48.972;10.686;2023-07-30T03:24:16;5.75;;;3.13;;
45944;SDS011;31655;48.972;10.686;2023-07-30T03:26:42;3.05;;;2.05;;
45944;SDS011;31655;48.972;10.686;2023-07-30T03:29:08;3.75;;;2.60;;
45944;SDS011;31655;48.972;10.686;2023-07-30T03:31:34;6.03;;;3.00;;
45944;SDS011;31655;48.972;10.686;2023-07-30T03:34:00;4.80;;;2.60;;
45944;SDS011;31655;48.972;10.686;2023-07-30T03:36:26;6.35;;;2.45;;
45944;SDS011;31655;48.972;10.686;2023-07-30T03:38:51;3.05;;;2.50;;
45944;SDS011;31655;48.972;10.686;2023-07-30T03:41:17;6.35;;;2.72;;
45944;SDS011;31655;48.972;10.686;2023-07-30T03:43:43;3.97;;;2.83;;
45944;SDS011;31655;48.972;10.686;2023-07-30T03:46:09;5.28;;;2.78;;
45944;SDS011;31655;48.972;10.686;2023-07-30T03:48:35;5.32;;;2.60;;
45944;SDS011;31655;48.972;10.686;2023-07-30T03:51:03;3.45;;;2.55;;
45944;SDS011;31655;48.972;10.686;2023-07-30T03:53:29;4.35;;;3.25;;
45944;SDS011;31655;48.972;10.686;2023-07-30T03:55:55;5.13;;;2.60;;
45944;SDS011;31655;48.972;10.686;2023-07-30T03:58:21;2.97;;;2.55;;
45944;SDS011;31655;48.972;10.686;2023-07-30T04:00:47;3.00;;;2.70;;
45944;SDS011;31655;48.972;10.686;2023-07-30T04:03:13;5.07;;;3.15;;
45944;SDS011;31655;48.972;10.686;2023-07-30T04:05:39;4.68;;;2.90;;
45944;SDS011;31655;48.972;10.686;2023-07-30T04:08:05;4.75;;;3.45;;
45944;SDS011;31655;48.972;10.686;2023-07-30T04:10:31;5.78;;;3.10;;
45944;SDS011;31655;48.972;10.686;2023-07-30T04:12:57;3.85;;;2.47;;
45944;SDS011;31655;48.972;10.686;2023-07-30T04:15:23;4.90;;;2.90;;
45944;SDS011;31655;48.972;10.686;2023-07-30T04:17:48;4.05;;;2.72;;
45944;SDS011;31655;48.972;10.686;2023-07-30T04:20:14;2.85;;;2.53;;
45944;SDS011;31655;48.972;10.686;2023-07-30T04:22:40;5.22;;;3.90;;
45944;SDS011;31655;48.972;10.686;2023-07-30T04:25:07;7.28;;;2.95;;
45944;SDS011;31655;48.972;10.686;2023-07-30T04:27:33;4.88;;;2.70;;
45944;SDS011;31655;48.972;10.686;2023-07-30T04:29:59;3.65;;;2.58;;
45944;SDS011;31655;48.972;10.686;2023-07-30T04:32:25;4.82;;;2.70;;
45944;SDS011;31655;48.972;10.686;2023-07-30T04:34:51;6.47;;;3.00;;
45944;SDS011;31655;48.972;10.686;2023-07-30T04:37:17;3.67;;;2.95;;
45944;SDS011;31655;48.972;10.686;2023-07-30T04:39:43;3.90;;;2.53;;
45944;SDS011;31655;48.972;10.686;2023-07-30T04:42:09;5.07;;;2.70;;
45944;SDS011;31655;48.972;10.686;2023-07-30T04:44:35;3.78;;;2.83;;
45944;SDS011;31655;48.972;10.686;2023-07-30T04:47:01;7.18;;;2.80;;
45944;SDS011;31655;48.972;10.686;2023-07-30T04:49:27;7.50;;;2.97;;
45944;SDS011;31655;48.972;10.686;2023-07-30T04:51:53;4.60;;;2.60;;
45944;SDS011;31655;48.972;10.686;2023-07-30T04:54:19;4.50;;;2.50;;
45944;SDS011;31655;48.972;10.686;2023-07-30T04:56:45;2.38;;;2.17;;
45944;SDS011;31655;48.972;10.686;2023-07-30T04:59:11;6.72;;;2.55;;
45944;SDS011;31655;48.972;10.686;2023-07-30T05:01:37;6.35;;;2.50;;
45944;SDS011;31655;48.972;10.686;2023-07-30T05:04:03;3.70;;;2.45;;
45944;SDS011;31655;48.972;10.686;2023-07-30T05:06:29;2.90;;;2.60;;
45944;SDS011;31655;48.972;10.686;2023-07-30T05:08:55;5.18;;;2.33;;
45944;SDS011;31655;48.972;10.686;2023-07-30T05:11:21;5.35;;;2.75;;
45944;SDS011;31655;48.972;10.686;2023-07-30T05:13:47;3.47;;;2.63;;
45944;SDS011;31655;48.972;10.686;2023-07-30T05:16:14;3.55;;;3.03;;
45944;SDS011;31655;48.972;10.686;2023-07-30T05:18:40;4.68;;;2.88;;
45944;SDS011;31655;48.972;10.686;2023-07-30T05:21:06;8.88;;;3.13;;
45944;SDS011;31655;48.972;10.686;2023-07-30T05:23:31;4.95;;;2.70;;
45944;SDS011;31655;48.972;10.686;2023-07-30T05:25:57;7.88;;;3.80;;
45944;SDS011;31655;48.972;10.686;2023-07-30T05:28:23;4.95;;;2.58;;
45944;SDS011;31655;48.972;10.686;2023-07-30T05:30:49;3.95;;;2.67;;
45944;SDS011;31655;48.972;10.686;2023-07-30T05:33:15;3.28;;;2.60;;
45944;SDS011;31655;48.972;10.686;2023-07-30T05:35:41;2.95;;;2.60;;
45944;SDS011;31655;48.972;10.686;2023-07-30T05:38:07;3.97;;;2.88;;
45944;SDS011;31655;48.972;10.686;2023-07-30T05:40:33;7.32;;;2.72;;
45944;SDS011;31655;48.972;10.686;2023-07-30T05:43:00;7.95;;;3.08;;
45944;SDS011;31655;48.972;10.686;2023-07-30T05:45:26;4.82;;;3.08;;
45944;SDS011;31655;48.972;10.686;2023-07-30T05:47:52;5.15;;;3.35;;
45944;SDS011;31655;48.972;10.686;2023-07-30T05:50:18;12.85;;;3.58;;
45944;SDS011;31655;48.972;10.686;2023-07-30T05:52:44;7.20;;;3.05;;
45944;SDS011;31655;48.972;10.686;2023-07-30T05:55:10;4.55;;;3.65;;
45944;SDS011;31655;48.972;10.686;2023-07-30T05:57:36;3.97;;;3.03;;
45944;SDS011;31655;48.972;10.686;2023-07-30T06:00:02;3.45;;;2.95;;
45944;SDS011;31655;48.972;10.686;2023-07-30T06:02:28;5.68;;;3.05;;
45944;SDS011;31655;48.972;10.686;2023-07-30T06:04:54;5.47;;;3.55;;
45944;SDS011;31655;48.972;10.686;2023-07-30T06:07:20;4.47;;;3.50;;
45944;SDS011;31655;48.972;10.686;2023-07-30T06:09:46;5.72;;;4.00;;
45944;SDS011;31655;48.972;10.686;2023-07-30T06:12:12;4.47;;;3.63;;
45944;SDS011;31655;48.972;10.686;2023-07-30T06:14:38;6.00;;;4.13;;
45944;SDS011;31655;48.972;10.686;2023-07-30T06:17:04;6.05;;;3.85;;
45944;SDS011;31655;48.972;10.686;2023-07-30T06:19:30;6.63;;;2.95;;
45944;SDS011;31655;48.972;10.686;2023-07-30T06:21:56;6.53;;;3.25;;
45944;SDS011;31655;48.972;10.686;2023-07-30T06:24:22;6.40;;;2.50;;
45944;SDS011;31655;48.972;10.686;2023-07-30T06:26:48;3.83;;;2.72;;
45944;SDS011;31655;48.972;10.686;2023-07-30T06:29:13;4.38;;;2.67;;
45944;SDS011;31655;48.972;10.686;2023-07-30T06:31:39;4.03;;;2.80;;
45944;SDS011;31655;48.972;10.686;2023-07-30T06:34:05;8.00;;;2.95;;
45944;SDS011;31655;48.972;10.686;2023-07-30T06:36:31;2.88;;;2.30;;
45944;SDS011;31655;48.972;10.686;2023-07-30T06:38:57;3.47;;;2.70;;
45944;SDS011;31655;48.972;10.686;2023-07-30T06:41:24;4.82;;;2.92;;
45944;SDS011;31655;48.972;10.686;2023-07-30T06:43:50;8.10;;;3.13;;
45944;SDS011;31655;48.972;10.686;2023-07-30T06:46:16;5.22;;;2.95;;
45944;SDS011;31655;48.972;10.686;2023-07-30T06:48:42;3.17;;;2.80;;
45944;SDS011;31655;48.972;10.686;2023-07-30T06:51:09;3.95;;;2.72;;
45944;SDS011;31655;48.972;10.686;2023-07-30T06:53:34;4.05;;;3.15;;
45944;SDS011;31655;48.972;10.686;2023-07-30T06:56:00;5.13;;;3.33;;
45944;SDS011;31655;48.972;10.686;2023-07-30T06:58:26;3.22;;;2.42;;
45944;SDS011;31655;48.972;10.686;2023-07-30T07:00:52;3.60;;;2.42;;
45944;SDS011;31655;48.972;10.686;2023-07-30T07:03:18;3.85;;;2.85;;
45944;SDS011;31655;48.972;10.686;2023-07-30T07:05:44;3.33;;;3.03;;
45944;SDS011;31655;48.972;10.686;2023-07-30T07:08:10;5.03;;;3.20;;
45944;SDS011;31655;48.972;10.686;2023-07-30T07:10:36;9.27;;;3.15;;
45944;SDS011;31655;48.972;10.686;2023-07-30T07:13:02;3.70;;;2.97;;
45944;SDS011;31655;48.972;10.686;2023-07-30T07:15:28;8.63;;;3.13;;
45944;SDS011;31655;48.972;10.686;2023-07-30T07:17:53;4.50;;;2.92;;
45944;SDS011;31655;48.972;10.686;2023-07-30T07:20:19;4.40;;;3.47;;
45944;SDS011;31655;48.972;10.686;2023-07-30T07:22:45;5.63;;;3.30;;
45944;SDS011;31655;48.972;10.686;2023-07-30T07:25:11;3.70;;;2.90;;
45944;SDS011;31655;48.972;10.686;2023-07-30T07:27:37;4.13;;;3.33;;
45944;SDS011;31655;48.972;10.686;2023-07-30T07:30:03;4.85;;;3.33;;
45944;SDS011;31655;48.972;10.686;2023-07-30T07:32:29;5.03;;;2.83;;
45944;SDS011;31655;48.972;10.686;2023-07-30T07:34:55;4.38;;;3.25;;
45944;SDS011;31655;48.972;10.686;2023-07-30T07:37:21;6.00;;;2.70;;
45944;SDS011;31655;48.972;10.686;2023-07-30T07:39:47;6.93;;;3.03;;
45944;SDS011;31655;48.972;10.686;2023-07-30T07:42:13;4.18;;;3.28;;
45944;SDS011;31655;48.972;10.686;2023-07-30T07:44:39;6.20;;;3.22;;
45944;SDS011;31655;48.972;10.686;2023-07-30T07:47:05;6.10;;;3.28;;
45944;SDS011;31655;48.972;10.686;2023-07-30T07:49:31;3.60;;;2.60;;
45944;SDS011;31655;48.972;10.686;2023-07-30T07:51:57;2.83;;;2.50;;
45944;SDS011;31655;48.972;10.686;2023-07-30T07:54:23;2.83;;;2.55;;
45944;SDS011;31655;48.972;10.686;2023-07-30T07:56:49;2.90;;;2.20;;
45944;SDS011;31655;48.972;10.686;2023-07-30T07:59:14;2.33;;;1.90;;
45944;SDS011;31655;48.972;10.686;2023-07-30T08:01:40;2.38;;;1.73;;
45944;SDS011;31655;48.972;10.686;2023-07-30T08:04:06;2.13;;;1.45;;
45944;SDS011;31655;48.972;10.686;2023-07-30T08:06:32;1.98;;;1.35;;
45944;SDS011;31655;48.972;10.686;2023-07-30T08:08:58;1.40;;;1.30;;
45944;SDS011;31655;48.972;10.686;2023-07-30T08:11:23;1.20;;;1.10;;
45944;SDS011;31655;48.972;10.686;2023-07-30T08:13:49;3.63;;;1.10;;
45944;SDS011;31655;48.972;10.686;2023-07-30T08:16:15;1.63;;;1.27;;
45944;SDS011;31655;48.972;10.686;2023-07-30T08:18:41;1.42;;;1.00;;
45944;SDS011;31655;48.972;10.686;2023-07-30T08:21:07;1.58;;;1.38;;
45944;SDS011;31655;48.972;10.686;2023-07-30T08:23:33;1.95;;;1.50;;
45944;SDS011;31655;48.972;10.686;2023-07-30T08:25:59;4.07;;;1.75;;
45944;SDS011;31655;48.972;10.686;2023-07-30T08:28:25;2.38;;;1.05;;
45944;SDS011;31655;48.972;10.686;2023-07-30T08:30:51;1.77;;;1.52;;
45944;SDS011;31655;48.972;10.686;2023-07-30T08:33:17;1.60;;;1.50;;
45944;SDS011;31655;48.972;10.686;2023-07-30T08:35:43;3.03;;;1.65;;
45944;SDS011;31655;48.972;10.686;2023-07-30T08:38:09;4.53;;;2.22;;
45944;SDS011;31655;48.972;10.686;2023-07-30T08:40:35;2.63;;;1.95;;
45944;SDS011;31655;48.972;10.686;2023-07-30T08:43:01;2.08;;;1.60;;
45944;SDS011;31655;48.972;10.686;2023-07-30T08:45:27;2.03;;;1.83;;
45944;SDS011;31655;48.972;10.686;2023-07-30T08:47:53;3.70;;;1.98;;
45944;SDS011;31655;48.972;10.686;2023-07-30T08:50:19;1.33;;;1.23;;
45944;SDS011;31655;48.972;10.686;2023-07-30T08:52:45;1.70;;;1.60;;
45944;SDS011;31655;48.972;10.686;2023-07-30T08:55:13;1.48;;;1.25;;
45944;SDS011;31655;48.972;10.686;2023-07-30T08:57:40;2.63;;;1.40;;
45944;SDS011;31655;48.972;10.686;2023-07-30T09:00:08;1.77;;;1.33;;
45944;SDS011;31655;48.972;10.686;2023-07-30T09:02:41;1.27;;;1.17;;
45944;SDS011;31655;48.972;10.686;2023-07-30T09:05:12;1.38;;;1.13;;
45944;SDS011;31655;48.972;10.686;2023-07-30T09:07:38;2.28;;;1.42;;
45944;SDS011;31655;48.972;10.686;2023-07-30T09:10:05;2.95;;;1.58;;
45944;SDS011;31655;48.972;10.686;2023-07-30T09:12:32;1.63;;;1.38;;
45944;SDS011;31655;48.972;10.686;2023-07-30T09:14:58;1.45;;;1.33;;
45944;SDS011;31655;48.972;10.686;2023-07-30T09:17:25;4.00;;;1.30;;
45944;SDS011;31655;48.972;10.686;2023-07-30T09:19:52;2.15;;;1.30;;
45944;SDS011;31655;48.972;10.686;2023-07-30T09:22:24;1.60;;;1.20;;
45944;SDS011;31655;48.972;10.686;2023-07-30T09:24:54;1.48;;;1.38;;
45944;SDS011;31655;48.972;10.686;2023-07-30T09:27:22;1.85;;;1.40;;
45944;SDS011;31655;48.972;10.686;2023-07-30T09:29:54;2.08;;;1.27;;
45944;SDS011;31655;48.972;10.686;2023-07-30T09:32:31;1.50;;;1.38;;
45944;SDS011;31655;48.972;10.686;2023-07-30T09:37:37;7.72;;;1.65;;
45944;SDS011;31655;48.972;10.686;2023-07-30T09:40:05;2.45;;;1.83;;
45944;SDS011;31655;48.972;10.686;2023-07-30T09:42:31;3.28;;;1.75;;
45944;SDS011;31655;48.972;10.686;2023-07-30T09:45:04;2.08;;;1.50;;
45944;SDS011;31655;48.972;10.686;2023-07-30T09:47:32;1.70;;;1.58;;
45944;SDS011;31655;48.972;10.686;2023-07-30T09:50:01;1.63;;;1.50;;
45944;SDS011;31655;48.972;10.686;2023-07-30T09:52:27;4.22;;;2.25;;
45944;SDS011;31655;48.972;10.686;2023-07-30T09:54:55;5.82;;;2.08;;
45944;SDS011;31655;48.972;10.686;2023-07-30T09:57:22;2.05;;;1.65;;
45944;SDS011;31655;48.972;10.686;2023-07-30T09:59:48;4.78;;;1.73;;
45944;SDS011;31655;48.972;10.686;2023-07-30T10:02:14;3.72;;;2.72;;
45944;SDS011;31655;48.972;10.686;2023-07-30T10:04:42;2.88;;;2.33;;
45944;SDS011;31655;48.972;10.686;2023-07-30T10:07:13;3.28;;;1.75;;
45944;SDS011;31655;48.972;10.686;2023-07-30T10:09:42;2.38;;;2.00;;
45944;SDS011;31655;48.972;10.686;2023-07-30T10:12:15;2.30;;;1.80;;
45944;SDS011;31655;48.972;10.686;2023-07-30T10:14:43;3.25;;;2.00;;
45944;SDS011;31655;48.972;10.686;2023-07-30T10:17:09;1.83;;;1.73;;
45944;SDS011;31655;48.972;10.686;2023-07-30T10:19:36;2.17;;;1.70;;
45944;SDS011;31655;48.972;10.686;2023-07-30T10:24:37;2.15;;;1.90;;
45944;SDS011;31655;48.972;10.686;2023-07-30T10:27:07;3.10;;;1.77;;
45944;SDS011;31655;48.972;10.686;2023-07-30T10:29:39;2.25;;;1.85;;
45944;SDS011;31655;48.972;10.686;2023-07-30T10:32:06;2.97;;;1.45;;
45944;SDS011;31655;48.972;10.686;2023-07-30T10:34:47;1.45;;;1.35;;
45944;SDS011;31655;48.972;10.686;2023-07-30T10:37:22;1.45;;;1.02;;
45944;SDS011;31655;48.972;10.686;2023-07-30T10:39:50;1.95;;;1.38;;
45944;SDS011;31655;48.972;10.686;2023-07-30T10:42:16;2.80;;;1.17;;
45944;SDS011;31655;48.972;10.686;2023-07-30T10:44:43;1.10;;;1.00;;
45944;SDS011;31655;48.972;10.686;2023-07-30T10:47:10;2.22;;;0.95;;
45944;SDS011;31655;48.972;10.686;2023-07-30T10:49:36;2.13;;;1.35;;
45944;SDS011;31655;48.972;10.686;2023-07-30T10:52:03;4.80;;;0.98;;
45944;SDS011;31655;48.972;10.686;2023-07-30T10:54:33;1.45;;;1.33;;
45944;SDS011;31655;48.972;10.686;2023-07-30T10:56:59;2.05;;;1.45;;
45944;SDS011;31655;48.972;10.686;2023-07-30T10:59:25;1.52;;;1.08;;
45944;SDS011;31655;48.972;10.686;2023-07-30T11:01:52;2.72;;;1.40;;
45944;SDS011;31655;48.972;10.686;2023-07-30T11:04:18;2.72;;;1.48;;
45944;SDS011;31655;48.972;10.686;2023-07-30T11:06:49;3.17;;;1.73;;
45944;SDS011;31655;48.972;10.686;2023-07-30T11:09:19;3.45;;;1.75;;
45944;SDS011;31655;48.972;10.686;2023-07-30T11:11:49;2.45;;;1.50;;
45944;SDS011;31655;48.972;10.686;2023-07-30T11:14:15;2.28;;;1.35;;
45944;SDS011;31655;48.972;10.686;2023-07-30T11:16:54;2.22;;;1.70;;
45944;SDS011;31655;48.972;10.686;2023-07-30T11:19:23;5.43;;;2.28;;
45944;SDS011;31655;48.972;10.686;2023-07-30T11:21:50;2.25;;;1.63;;
45944;SDS011;31655;48.972;10.686;2023-07-30T11:24:17;1.98;;;1.60;;
45944;SDS011;31655;48.972;10.686;2023-07-30T11:26:43;1.63;;;1.52;;
45944;SDS011;31655;48.972;10.686;2023-07-30T11:29:15;3.03;;;1.85;;
45944;SDS011;31655;48.972;10.686;2023-07-30T11:31:45;2.35;;;2.10;;
45944;SDS011;31655;48.972;10.686;2023-07-30T11:34:12;2.70;;;2.47;;
45944;SDS011;31655;48.972;10.686;2023-07-30T11:36:38;3.20;;;2.20;;
45944;SDS011;31655;48.972;10.686;2023-07-30T11:39:07;2.65;;;1.98;;
45944;SDS011;31655;48.972;10.686;2023-07-30T11:41:33;2.25;;;1.80;;
45944;SDS011;31655;48.972;10.686;2023-07-30T11:43:59;2.45;;;1.80;;
45944;SDS011;31655;48.972;10.686;2023-07-30T11:46:25;6.03;;;2.60;;
45944;SDS011;31655;48.972;10.686;2023-07-30T11:48:52;5.10;;;2.25;;
45944;SDS011;31655;48.972;10.686;2023-07-30T11:53:52;3.00;;;2.17;;
45944;SDS011;31655;48.972;10.686;2023-07-30T11:56:19;2.78;;;2.38;;
45944;SDS011;31655;48.972;10.686;2023-07-30T11:58:46;3.35;;;2.65;;
45944;SDS011;31655;48.972;10.686;2023-07-30T12:01:13;3.88;;;2.38;;
45944;SDS011;31655;48.972;10.686;2023-07-30T12:03:40;2.63;;;2.40;;
45944;SDS011;31655;48.972;10.686;2023-07-30T12:06:06;4.90;;;2.17;;
45944;SDS011;31655;48.972;10.686;2023-07-30T12:08:33;3.08;;;1.90;;
45944;SDS011;31655;48.972;10.686;2023-07-30T12:11:04;3.30;;;2.33;;
45944;SDS011;31655;48.972;10.686;2023-07-30T12:13:30;2.22;;;2.08;;
45944;SDS011;31655;48.972;10.686;2023-07-30T12:15:57;3.33;;;2.15;;
45944;SDS011;31655;48.972;10.686;2023-07-30T12:18:24;6.68;;;2.65;;
45944;SDS011;31655;48.972;10.686;2023-07-30T12:20:50;2.63;;;1.75;;
45944;SDS011;31655;48.972;10.686;2023-07-30T12:23:17;3.30;;;2.13;;
45944;SDS011;31655;48.972;10.686;2023-07-30T12:25:44;3.60;;;1.88;;
45944;SDS011;31655;48.972;10.686;2023-07-30T12:28:10;2.97;;;1.75;;
45944;SDS011;31655;48.972;10.686;2023-07-30T12:30:36;4.18;;;2.05;;
45944;SDS011;31655;48.972;10.686;2023-07-30T12:33:02;2.55;;;2.35;;
45944;SDS011;31655;48.972;10.686;2023-07-30T12:35:29;2.45;;;2.17;;
45944;SDS011;31655;48.972;10.686;2023-07-30T12:37:55;1.83;;;1.73;;
45944;SDS011;31655;48.972;10.686;2023-07-30T12:40:21;2.03;;;1.75;;
45944;SDS011;31655;48.972;10.686;2023-07-30T12:42:47;3.13;;;2.55;;
45944;SDS011;31655;48.972;10.686;2023-07-30T12:45:13;2.97;;;2.10;;
45944;SDS011;31655;48.972;10.686;2023-07-30T12:47:39;3.55;;;1.83;;
45944;SDS011;31655;48.972;10.686;2023-07-30T12:50:06;3.05;;;2.33;;
45944;SDS011;31655;48.972;10.686;2023-07-30T12:52:32;4.03;;;2.38;;
45944;SDS011;31655;48.972;10.686;2023-07-30T12:54:59;2.47;;;2.15;;
45944;SDS011;31655;48.972;10.686;2023-07-30T12:57:25;5.45;;;2.22;;
45944;SDS011;31655;48.972;10.686;2023-07-30T12:59:51;2.85;;;1.90;;
45944;SDS011;31655;48.972;10.686;2023-07-30T13:02:17;3.17;;;2.13;;
45944;SDS011;31655;48.972;10.686;2023-07-30T13:04:43;2.97;;;2.10;;
45944;SDS011;31655;48.972;10.686;2023-07-30T13:07:09;4.38;;;2.50;;
45944;SDS011;31655;48.972;10.686;2023-07-30T13:09:35;5.22;;;3.20;;
45944;SDS011;31655;48.972;10.686;2023-07-30T13:12:01;4.05;;;2.10;;
45944;SDS011;31655;48.972;10.686;2023-07-30T13:14:27;4.30;;;2.10;;
45944;SDS011;31655;48.972;10.686;2023-07-30T13:16:52;3.35;;;2.20;;
45944;SDS011;31655;48.972;10.686;2023-07-30T13:19:18;4.40;;;2.30;;
45944;SDS011;31655;48.972;10.686;2023-07-30T13:21:44;4.13;;;2.67;;
45944;SDS011;31655;48.972;10.686;2023-07-30T13:24:10;3.60;;;2.58;;
45944;SDS011;31655;48.972;10.686;2023-07-30T13:26:36;5.28;;;2.13;;
45944;SDS011;31655;48.972;10.686;2023-07-30T13:29:03;3.30;;;2.00;;
45944;SDS011;31655;48.972;10.686;2023-07-30T13:31:29;2.92;;;1.98;;
45944;SDS011;31655;48.972;10.686;2023-07-30T13:33:55;3.13;;;2.15;;
45944;SDS011;31655;48.972;10.686;2023-07-30T13:36:21;2.38;;;2.08;;
45944;SDS011;31655;48.972;10.686;2023-07-30T13:38:48;2.70;;;2.47;;
45944;SDS011;31655;48.972;10.686;2023-07-30T13:41:14;3.97;;;2.45;;
45944;SDS011;31655;48.972;10.686;2023-07-30T13:43:40;2.65;;;2.05;;
45944;SDS011;31655;48.972;10.686;2023-07-30T13:46:06;5.28;;;2.65;;
45944;SDS011;31655;48.972;10.686;2023-07-30T13:48:32;3.17;;;2.55;;
45944;SDS011;31655;48.972;10.686;2023-07-30T13:50:58;2.75;;;2.10;;
45944;SDS011;31655;48.972;10.686;2023-07-30T13:53:23;5.55;;;2.25;;
45944;SDS011;31655;48.972;10.686;2023-07-30T13:55:50;2.80;;;2.10;;
45944;SDS011;31655;48.972;10.686;2023-07-30T13:58:15;5.07;;;2.30;;
45944;SDS011;31655;48.972;10.686;2023-07-30T14:00:41;4.55;;;2.08;;
45944;SDS011;31655;48.972;10.686;2023-07-30T14:03:07;3.42;;;2.17;;
45944;SDS011;31655;48.972;10.686;2023-07-30T14:05:34;3.45;;;2.85;;
45944;SDS011;31655;48.972;10.686;2023-07-30T14:08:00;2.72;;;2.20;;
45944;SDS011;31655;48.972;10.686;2023-07-30T14:10:26;2.42;;;2.03;;
45944;SDS011;31655;48.972;10.686;2023-07-30T14:12:52;4.32;;;2.05;;
45944;SDS011;31655;48.972;10.686;2023-07-30T14:15:18;5.03;;;2.13;;
45944;SDS011;31655;48.972;10.686;2023-07-30T14:17:44;3.22;;;2.00;;
45944;SDS011;31655;48.972;10.686;2023-07-30T14:20:10;2.53;;;1.95;;
45944;SDS011;31655;48.972;10.686;2023-07-30T14:22:36;3.08;;;2.20;;
45944;SDS011;31655;48.972;10.686;2023-07-30T14:25:02;3.00;;;2.67;;
45944;SDS011;31655;48.972;10.686;2023-07-30T14:27:28;3.50;;;2.20;;
45944;SDS011;31655;48.972;10.686;2023-07-30T14:29:54;4.47;;;1.73;;
45944;SDS011;31655;48.972;10.686;2023-07-30T14:32:20;2.72;;;2.15;;
45944;SDS011;31655;48.972;10.686;2023-07-30T14:34:46;2.05;;;1.88;;
45944;SDS011;31655;48.972;10.686;2023-07-30T14:37:12;4.38;;;1.90;;